Time;durP1;ratioP1;P1;durP2;ratioP2;P2;SDS_P1;SDS_P2;PMS_P1;PMS_P2;Temp;Humidity;BMP_temperature;BMP_pressure;BME280_temperature;BME280_humidity;BME280_pressure;Samples;Min_cycle;Max_cycle;Signal;HPM_P1;HPM_P2
2024/01/24 00:01:53;;;;;;;;;;;6.40;99.90;;;;;;5027660;28;19962;-71
2024/01/24 00:04:20;;;;;;;;;;;6.40;99.90;;;;;;5024124;28;19955;-70
2024/01/24 00:06:48;;;;;;;;;;;6.40;99.90;;;;;;5024869;28;19922;-70
2024/01/24 00:09:14;;;;;;;;;;;6.40;99.90;;;;;;5031824;28;19960;-71
2024/01/24 00:11:41;;;;;;;;;;;6.50;99.90;;;;;;5022176;28;20130;-71
2024/01/24 00:14:08;;;;;;;;;;;6.50;99.90;;;;;;5026235;28;19921;-70
2024/01/24 00:16:35;;;;;;;;;;;6.50;99.90;;;;;;5026802;28;19921;-70
2024/01/24 00:19:02;;;;;;;;;;;6.60;99.90;;;;;;5032368;28;19975;-70
2024/01/24 00:21:29;;;;;;;;;;;6.70;99.90;;;;;;5017882;28;20128;-72
2024/01/24 00:23:57;;;;;;;;;;;6.70;99.90;;;;;;4995251;28;19961;-72
2024/01/24 00:26:23;;;;;;;;;;;6.70;99.90;;;;;;4992193;28;20247;-71
2024/01/24 00:28:50;;;;;;;;;;;6.80;99.90;;;;;;4996099;28;19930;-71
2024/01/24 00:31:17;;;;;;;;;;;6.80;99.90;;;;;;5024775;28;20249;-71
2024/01/24 00:33:43;;;;;;;;;;;6.80;99.90;;;;;;5041856;28;19925;-70
2024/01/24 00:36:10;;;;;;;;;;;6.90;99.90;;;;;;5041296;28;19921;-71
2024/01/24 00:38:36;;;;;;;;;;;6.90;99.90;;;;;;5026485;28;19921;-70
2024/01/24 00:41:05;;;;;;;;;;;7.00;99.90;;;;;;5026002;28;20122;-70
2024/01/24 00:43:31;;;;;;;;;;;7.00;99.90;;;;;;5026247;28;19972;-70
2024/01/24 00:45:58;;;;;;;;;;;7.10;99.90;;;;;;5036709;28;19964;-70
2024/01/24 00:48:24;;;;;;;;;;;7.20;99.90;;;;;;5041213;28;19956;-70
2024/01/24 00:50:51;;;;;;;;;;;7.20;99.90;;;;;;5042300;28;19971;-71
2024/01/24 00:53:20;;;;;;;;;;;7.20;99.90;;;;;;5041289;28;19959;-70
2024/01/24 00:55:47;;;;;;;;;;;7.30;99.90;;;;;;5041472;28;20173;-70
2024/01/24 00:58:15;;;;;;;;;;;7.30;99.90;;;;;;5041655;28;19921;-71
2024/01/24 01:00:41;;;;;;;;;;;7.40;99.90;;;;;;5034607;28;19953;-71
2024/01/24 01:03:08;;;;;;;;;;;7.40;99.90;;;;;;5034897;28;19921;-72
2024/01/24 01:05:34;;;;;;;;;;;7.40;99.90;;;;;;5025873;28;19928;-71
2024/01/24 01:08:01;;;;;;;;;;;7.40;99.90;;;;;;5025375;28;20266;-70
2024/01/24 01:10:28;;;;;;;;;;;7.40;99.90;;;;;;5025880;28;19943;-70
2024/01/24 01:12:55;;;;;;;;;;;7.50;99.90;;;;;;5025488;28;19984;-71
2024/01/24 01:15:24;;;;;;;;;;;7.50;99.90;;;;;;5025438;28;20274;-70
2024/01/24 01:17:50;;;;;;;;;;;7.50;99.90;;;;;;5025234;28;20215;-70
2024/01/24 01:20:19;;;;;;;;;;;7.50;99.90;;;;;;5026168;28;19988;-71
2024/01/24 01:22:45;;;;;;;;;;;7.60;99.90;;;;;;5025359;28;19964;-70
2024/01/24 01:25:12;;;;;;;;;;;7.60;99.90;;;;;;5024863;28;19922;-69
2024/01/24 01:27:39;;;;;;;;;;;7.60;99.90;;;;;;5025810;28;19928;-70
2024/01/24 01:30:07;;;;;;;;;;;7.60;99.90;;;;;;5025216;28;19989;-70
2024/01/24 01:32:35;;;;;;;;;;;7.70;99.90;;;;;;5026040;28;19984;-71
2024/01/24 01:35:02;;;;;;;;;;;7.70;99.90;;;;;;5023812;28;19922;-70
2024/01/24 01:37:28;;;;;;;;;;;7.70;99.90;;;;;;5033034;28;20187;-71
2024/01/24 01:39:55;;;;;;;;;;;7.80;99.90;;;;;;5041492;28;20109;-71
2024/01/24 01:42:22;;;;;;;;;;;7.80;99.90;;;;;;5036139;28;20011;-71
2024/01/24 01:44:48;;;;;;;;;;;7.90;99.90;;;;;;5025049;28;19989;-71
2024/01/24 01:47:15;;;;;;;;;;;7.90;99.90;;;;;;5029729;28;19984;-70
2024/01/24 01:49:43;;;;;;;;;;;8.00;99.90;;;;;;5034625;28;19960;-71
2024/01/24 01:52:10;;;;;;;;;;;8.00;99.90;;;;;;5029066;28;19921;-71
2024/01/24 01:54:37;;;;;;;;;;;8.10;99.90;;;;;;5026413;28;19972;-71
2024/01/24 01:57:05;;;;;;;;;;;8.10;99.90;;;;;;5040960;28;19964;-70
2024/01/24 01:59:32;;;;;;;;;;;8.20;99.90;;;;;;5044410;28;20179;-72
2024/01/24 02:02:01;;;;;;;;;;;8.20;99.90;;;;;;5033147;28;20194;-71
2024/01/24 02:04:28;;;;;;;;;;;8.30;99.90;;;;;;5028972;28;19922;-71
2024/01/24 02:06:56;;;;;;;;;;;8.30;99.90;;;;;;5028787;28;19929;-70
2024/01/24 02:09:23;;;;;;;;;;;8.40;99.90;;;;;;5029417;28;19921;-70
2024/01/24 02:11:50;;;;;;;;;;;8.40;99.90;;;;;;5028729;28;19953;-71
2024/01/24 02:14:16;;;;;;;;;;;8.40;99.90;;;;;;5028733;28;19956;-70
2024/01/24 02:16:43;;;;;;;;;;;8.40;99.90;;;;;;5028690;28;19921;-71
2024/01/24 02:19:10;;;;;;;;;;;8.50;99.90;;;;;;5028550;28;19984;-71
2024/01/24 02:21:37;;;;;;;;;;;8.50;99.90;;;;;;5044378;28;20076;-70
2024/01/24 02:24:09;;;;;;;;;;;8.50;99.90;;;;;;5044946;28;19963;-70
2024/01/24 02:26:36;;;;;;;;;;;8.50;99.90;;;;;;5043807;28;19956;-71
2024/01/24 02:29:02;;;;;;;;;;;8.50;99.90;;;;;;5044847;28;19956;-71
2024/01/24 02:31:29;;;;;;;;;;;8.50;99.90;;;;;;5044064;28;19928;-71
2024/01/24 02:33:56;;;;;;;;;;;8.60;99.90;;;;;;5044486;28;19988;-71
2024/01/24 02:36:22;;;;;;;;;;;8.60;99.90;;;;;;5043529;28;19956;-70
2024/01/24 02:38:49;;;;;;;;;;;8.60;99.90;;;;;;5044674;28;19999;-71
2024/01/24 02:41:19;;;;;;;;;;;8.60;99.90;;;;;;5044098;28;20167;-71
2024/01/24 02:43:45;;;;;;;;;;;8.60;99.90;;;;;;5027678;28;19928;-70
2024/01/24 02:46:12;;;;;;;;;;;8.60;99.90;;;;;;5027790;28;19921;-71
2024/01/24 02:48:39;;;;;;;;;;;8.60;99.90;;;;;;5027858;28;19952;-70
2024/01/24 02:51:05;;;;;;;;;;;8.60;99.90;;;;;;5027996;28;19928;-70
2024/01/24 02:53:32;;;;;;;;;;;8.60;99.90;;;;;;5032240;28;19929;-72
2024/01/24 02:55:58;;;;;;;;;;;8.60;99.90;;;;;;5026746;28;19992;-71
2024/01/24 02:58:26;;;;;;;;;;;8.60;99.90;;;;;;5028391;28;19988;-70
2024/01/24 03:00:53;;;;;;;;;;;8.60;99.90;;;;;;5027578;28;20025;-71
2024/01/24 03:03:20;;;;;;;;;;;8.70;99.90;;;;;;5041247;28;19984;-70
2024/01/24 03:05:47;;;;;;;;;;;8.60;99.90;;;;;;5043699;28;19921;-72
2024/01/24 03:08:14;;;;;;;;;;;8.50;99.90;;;;;;5029833;28;19922;-71
2024/01/24 03:10:41;;;;;;;;;;;8.60;99.90;;;;;;5027713;28;19944;-70
2024/01/24 03:13:08;;;;;;;;;;;8.60;99.90;;;;;;5040051;28;19925;-71
2024/01/24 03:15:36;;;;;;;;;;;8.60;99.90;;;;;;5042594;28;19921;-71
2024/01/24 03:18:03;;;;;;;;;;;8.60;99.90;;;;;;5037778;28;19956;-72
2024/01/24 03:20:30;;;;;;;;;;;8.60;99.90;;;;;;5028176;28;19922;-72
2024/01/24 03:22:56;;;;;;;;;;;8.60;99.90;;;;;;5027050;28;20283;-71
2024/01/24 03:25:23;;;;;;;;;;;8.60;99.90;;;;;;5027712;28;19957;-71
2024/01/24 03:27:49;;;;;;;;;;;8.70;99.90;;;;;;5027316;28;19985;-71
2024/01/24 03:30:16;;;;;;;;;;;8.60;99.90;;;;;;5027799;28;19945;-71
2024/01/24 03:32:45;;;;;;;;;;;8.60;99.90;;;;;;5043844;28;19956;-70
2024/01/24 03:35:11;;;;;;;;;;;8.70;99.90;;;;;;5043085;28;19921;-71
2024/01/24 03:37:38;;;;;;;;;;;8.70;99.90;;;;;;5042865;28;20254;-71
2024/01/24 03:40:06;;;;;;;;;;;8.70;99.90;;;;;;5043136;28;20207;-71
2024/01/24 03:42:32;;;;;;;;;;;8.80;99.90;;;;;;5040096;28;20089;-71
2024/01/24 03:44:59;;;;;;;;;;;8.70;99.90;;;;;;5024822;28;19922;-71
2024/01/24 03:47:26;;;;;;;;;;;8.80;99.90;;;;;;5025275;28;20166;-71
2024/01/24 03:49:54;;;;;;;;;;;8.80;99.90;;;;;;5025164;28;19922;-71
2024/01/24 03:52:20;;;;;;;;;;;8.80;99.90;;;;;;5040507;28;19944;-70
2024/01/24 03:54:47;;;;;;;;;;;8.80;99.90;;;;;;5042651;28;19920;-70
2024/01/24 03:57:14;;;;;;;;;;;8.80;99.90;;;;;;5042726;28;19928;-71
2024/01/24 03:59:40;;;;;;;;;;;8.90;99.90;;;;;;5042736;28;19948;-71
2024/01/24 04:02:07;;;;;;;;;;;8.90;99.90;;;;;;5043234;28;19983;-71
2024/01/24 04:04:33;;;;;;;;;;;8.90;99.90;;;;;;5026416;28;19928;-71
2024/01/24 04:07:02;;;;;;;;;;;9.00;99.90;;;;;;5025869;28;20071;-71
2024/01/24 04:09:28;;;;;;;;;;;9.00;99.90;;;;;;5027133;28;19989;-71
2024/01/24 04:11:55;;;;;;;;;;;9.10;99.90;;;;;;5026524;28;19928;-71
2024/01/24 04:14:22;;;;;;;;;;;9.10;99.90;;;;;;5026727;28;20150;-70
2024/01/24 04:16:48;;;;;;;;;;;9.10;99.90;;;;;;5026474;28;19988;-70
2024/01/24 04:19:15;;;;;;;;;;;9.20;99.90;;;;;;5026847;28;19953;-71
2024/01/24 04:21:43;;;;;;;;;;;9.20;99.90;;;;;;5028654;28;19921;-71
2024/01/24 04:24:11;;;;;;;;;;;9.30;99.90;;;;;;5042662;28;19928;-70
2024/01/24 04:26:37;;;;;;;;;;;9.30;99.90;;;;;;5026194;28;20287;-71
2024/01/24 04:29:04;;;;;;;;;;;9.30;99.90;;;;;;5026152;28;20060;-71
2024/01/24 04:31:30;;;;;;;;;;;9.30;99.90;;;;;;5026983;28;19927;-71
2024/01/24 04:33:57;;;;;;;;;;;9.30;99.90;;;;;;5026073;28;20025;-70
2024/01/24 04:36:24;;;;;;;;;;;9.40;99.90;;;;;;5026054;28;19928;-70
2024/01/24 04:38:50;;;;;;;;;;;9.40;99.90;;;;;;5025961;28;19988;-70
2024/01/24 04:41:18;;;;;;;;;;;9.40;99.90;;;;;;5026507;28;19988;-71
2024/01/24 04:43:45;;;;;;;;;;;9.40;99.90;;;;;;5023934;28;19953;-70
2024/01/24 04:46:14;;;;;;;;;;;9.40;99.90;;;;;;5025432;28;19922;-72
2024/01/24 04:48:42;;;;;;;;;;;9.40;99.90;;;;;;5024059;28;19929;-71
2024/01/24 04:51:09;;;;;;;;;;;9.40;99.90;;;;;;5024116;28;19925;-71
2024/01/24 04:53:36;;;;;;;;;;;9.40;99.90;;;;;;5038906;28;19921;-71
2024/01/24 04:56:03;;;;;;;;;;;9.40;99.90;;;;;;5025055;28;19955;-71
2024/01/24 04:58:31;;;;;;;;;;;9.40;99.90;;;;;;5026169;28;20115;-71
2024/01/24 05:00:57;;;;;;;;;;;9.40;99.90;;;;;;5025386;28;19963;-70
2024/01/24 05:03:24;;;;;;;;;;;9.40;99.90;;;;;;5026428;28;19921;-71
2024/01/24 05:05:51;;;;;;;;;;;9.40;99.90;;;;;;5025285;28;19984;-71
2024/01/24 05:08:18;;;;;;;;;;;9.40;99.90;;;;;;5025965;28;20207;-71
2024/01/24 05:10:44;;;;;;;;;;;9.40;99.90;;;;;;5025542;28;19988;-71
2024/01/24 05:13:11;;;;;;;;;;;9.40;99.90;;;;;;5025564;28;20128;-71
2024/01/24 05:15:39;;;;;;;;;;;9.40;99.90;;;;;;5027514;28;19939;-71
2024/01/24 05:18:06;;;;;;;;;;;9.40;99.90;;;;;;5035183;28;19922;-71
2024/01/24 05:20:33;;;;;;;;;;;9.40;99.90;;;;;;5040510;28;19922;-70
2024/01/24 05:22:59;;;;;;;;;;;9.40;99.90;;;;;;5041608;28;19988;-71
2024/01/24 05:25:26;;;;;;;;;;;9.40;99.90;;;;;;5040008;28;19929;-70
2024/01/24 05:27:53;;;;;;;;;;;9.40;99.90;;;;;;5036772;28;19928;-71
2024/01/24 05:30:20;;;;;;;;;;;9.40;99.90;;;;;;5040835;28;19963;-70
2024/01/24 05:32:47;;;;;;;;;;;9.40;99.90;;;;;;5041777;28;20122;-71
2024/01/24 05:35:16;;;;;;;;;;;9.40;99.90;;;;;;5040295;28;19956;-71
2024/01/24 05:37:43;;;;;;;;;;;9.50;99.90;;;;;;5018138;28;19927;-71
2024/01/24 05:40:10;;;;;;;;;;;9.50;99.90;;;;;;5024862;28;20278;-71
2024/01/24 05:42:37;;;;;;;;;;;9.50;99.90;;;;;;5036191;28;19952;-71
2024/01/24 05:45:05;;;;;;;;;;;9.50;99.90;;;;;;5022944;28;19957;-70
2024/01/24 05:47:32;;;;;;;;;;;9.50;99.90;;;;;;5023227;28;20219;-71
2024/01/24 05:50:00;;;;;;;;;;;9.60;99.90;;;;;;5024833;28;19985;-70
2024/01/24 05:52:26;;;;;;;;;;;9.60;99.90;;;;;;5025770;28;19989;-71
2024/01/24 05:54:53;;;;;;;;;;;9.70;99.90;;;;;;5018405;28;19929;-71
2024/01/24 05:57:21;;;;;;;;;;;9.60;99.90;;;;;;5024861;28;19922;-71
2024/01/24 05:59:48;;;;;;;;;;;9.70;99.90;;;;;;5024491;28;19938;-72
2024/01/24 06:02:14;;;;;;;;;;;9.60;99.90;;;;;;5024497;28;19921;-72
2024/01/24 06:04:41;;;;;;;;;;;9.60;99.90;;;;;;5024276;28;19984;-70
2024/01/24 06:07:09;;;;;;;;;;;9.70;99.90;;;;;;5024820;28;19927;-71
2024/01/24 06:09:36;;;;;;;;;;;9.70;99.90;;;;;;5025494;28;19921;-69
2024/01/24 06:12:03;;;;;;;;;;;9.60;99.90;;;;;;5024984;28;19921;-69
2024/01/24 06:14:29;;;;;;;;;;;9.70;99.90;;;;;;4997601;28;19928;-71
2024/01/24 06:16:56;;;;;;;;;;;9.70;99.90;;;;;;4995294;28;20208;-71
2024/01/24 06:19:23;;;;;;;;;;;9.80;99.90;;;;;;5015013;28;19928;-71
2024/01/24 06:21:49;;;;;;;;;;;9.80;99.90;;;;;;5012115;28;19990;-71
2024/01/24 06:24:18;;;;;;;;;;;9.80;99.90;;;;;;5022987;28;19921;-73
2024/01/24 06:26:45;;;;;;;;;;;9.90;99.90;;;;;;5023684;28;19921;-72
2024/01/24 06:29:13;;;;;;;;;;;10.00;99.90;;;;;;5017180;28;19922;-71
2024/01/24 06:31:39;;;;;;;;;;;10.00;99.90;;;;;;5025357;28;19927;-71
2024/01/24 06:34:06;;;;;;;;;;;10.10;99.90;;;;;;5030979;28;20259;-72
2024/01/24 06:36:32;;;;;;;;;;;10.10;99.90;;;;;;5029413;28;19928;-71
2024/01/24 06:38:59;;;;;;;;;;;10.10;99.90;;;;;;5031833;28;20129;-71
2024/01/24 06:41:28;;;;;;;;;;;10.10;99.90;;;;;;5034622;28;19988;-72
2024/01/24 06:43:54;;;;;;;;;;;10.10;99.90;;;;;;4997270;28;19937;-72
2024/01/24 06:46:22;;;;;;;;;;;10.10;99.90;;;;;;4995310;28;20386;-72
2024/01/24 06:48:49;;;;;;;;;;;10.00;99.90;;;;;;4996480;28;19964;-72
2024/01/24 06:51:17;;;;;;;;;;;10.00;99.90;;;;;;4995079;28;19937;-73
2024/01/24 06:53:43;;;;;;;;;;;10.00;99.90;;;;;;5002624;28;19921;-72
2024/01/24 06:56:10;;;;;;;;;;;9.90;99.90;;;;;;4994149;28;19930;-72
2024/01/24 06:58:40;;;;;;;;;;;9.90;99.90;;;;;;4994741;28;19929;-77
2024/01/24 07:01:06;;;;;;;;;;;9.90;99.90;;;;;;4995423;28;19940;-72
2024/01/24 07:03:33;;;;;;;;;;;9.90;99.90;;;;;;4995701;28;19930;-73
2024/01/24 07:06:00;;;;;;;;;;;9.80;99.90;;;;;;5018539;28;19953;-72
2024/01/24 07:08:26;;;;;;;;;;;9.80;99.90;;;;;;5036051;28;19980;-72
2024/01/24 07:10:54;;;;;;;;;;;9.80;99.90;;;;;;5034886;28;19980;-71
2024/01/24 07:13:21;;;;;;;;;;;9.70;99.90;;;;;;5029107;28;19928;-73
2024/01/24 07:15:49;;;;;;;;;;;9.70;99.90;;;;;;5019692;28;19928;-73
2024/01/24 07:18:16;;;;;;;;;;;9.70;99.90;;;;;;5025169;28;19948;-72
2024/01/24 07:20:43;;;;;;;;;;;9.70;99.90;;;;;;5027530;28;20048;-73
2024/01/24 07:23:09;;;;;;;;;;;9.70;99.90;;;;;;5022269;28;19921;-72
2024/01/24 07:25:36;;;;;;;;;;;9.60;99.90;;;;;;5021211;28;19921;-72
2024/01/24 07:28:03;;;;;;;;;;;9.60;99.90;;;;;;5026345;28;19928;-72
2024/01/24 07:30:29;;;;;;;;;;;9.70;99.90;;;;;;5007601;28;19997;-72
2024/01/24 07:32:57;;;;;;;;;;;9.60;99.90;;;;;;4996597;28;19921;-72
2024/01/24 07:35:24;;;;;;;;;;;9.70;99.90;;;;;;4993745;28;19988;-71
2024/01/24 07:37:50;;;;;;;;;;;9.70;99.90;;;;;;4994459;28;20009;-71
2024/01/24 07:40:17;;;;;;;;;;;9.70;99.90;;;;;;5009102;28;19953;-72
2024/01/24 07:42:44;;;;;;;;;;;9.70;99.90;;;;;;5024133;28;19984;-72
2024/01/24 07:45:10;;;;;;;;;;;9.70;99.90;;;;;;5017390;28;19922;-73
2024/01/24 07:47:37;;;;;;;;;;;9.80;99.90;;;;;;5022358;28;19949;-72
2024/01/24 07:50:05;;;;;;;;;;;9.80;99.90;;;;;;5025258;28;19944;-72
2024/01/24 07:52:32;;;;;;;;;;;9.70;99.90;;;;;;5027229;28;20016;-72
2024/01/24 07:54:59;;;;;;;;;;;9.70;99.90;;;;;;5025022;28;19988;-72
2024/01/24 07:57:25;;;;;;;;;;;9.80;99.90;;;;;;5023683;28;19960;-72
2024/01/24 07:59:52;;;;;;;;;;;9.70;99.90;;;;;;5020726;28;19992;-72
2024/01/24 08:02:19;;;;;;;;;;;9.70;99.90;;;;;;5026982;28;19988;-72
2024/01/24 08:04:46;;;;;;;;;;;9.70;99.90;;;;;;5020797;28;19953;-72
2024/01/24 08:07:14;;;;;;;;;;;9.70;99.90;;;;;;5025581;28;20374;-72
2024/01/24 08:09:40;;;;;;;;;;;9.70;99.90;;;;;;5027271;28;19957;-72
2024/01/24 08:12:07;;;;;;;;;;;9.70;99.90;;;;;;5004861;28;19971;-76
2024/01/24 08:14:34;;;;;;;;;;;9.70;99.90;;;;;;4996115;28;19948;-73
2024/01/24 08:17:01;;;;;;;;;;;9.70;99.90;;;;;;4994332;28;19944;-72
2024/01/24 08:19:27;;;;;;;;;;;9.70;99.90;;;;;;4994348;28;19921;-72
2024/01/24 08:21:54;;;;;;;;;;;9.70;99.90;;;;;;4994761;28;19968;-71
2024/01/24 08:24:22;;;;;;;;;;;9.70;99.90;;;;;;4992662;28;20215;-73
2024/01/24 08:26:48;;;;;;;;;;;9.70;99.90;;;;;;4993552;28;19968;-72
2024/01/24 08:29:15;;;;;;;;;;;9.70;99.90;;;;;;5004290;28;19955;-72
2024/01/24 08:31:42;;;;;;;;;;;9.70;99.90;;;;;;5020547;28;20114;-72
2024/01/24 08:34:08;;;;;;;;;;;9.70;99.90;;;;;;5020708;28;19929;-72
2024/01/24 08:36:35;;;;;;;;;;;9.80;99.90;;;;;;5012524;28;20004;-72
2024/01/24 08:39:05;;;;;;;;;;;9.80;99.90;;;;;;5020690;28;19921;-71
2024/01/24 08:41:34;;;;;;;;;;;9.80;99.90;;;;;;5016950;28;19933;-72
2024/01/24 08:44:00;;;;;;;;;;;9.80;99.90;;;;;;5002361;28;19921;-72
2024/01/24 08:46:27;;;;;;;;;;;9.80;99.90;;;;;;5005261;28;20235;-72
2024/01/24 08:48:53;;;;;;;;;;;9.80;99.90;;;;;;4992477;28;19975;-72
2024/01/24 08:51:22;;;;;;;;;;;9.80;99.90;;;;;;4994783;28;19985;-72
2024/01/24 08:53:48;;;;;;;;;;;9.80;99.90;;;;;;4994581;28;19933;-73
2024/01/24 08:56:15;;;;;;;;;;;9.80;99.90;;;;;;4991886;28;19953;-72
2024/01/24 08:58:43;;;;;;;;;;;9.90;99.90;;;;;;4991108;28;19988;-71
2024/01/24 09:01:10;;;;;;;;;;;9.90;99.90;;;;;;4993386;28;19930;-73
2024/01/24 09:03:36;;;;;;;;;;;9.90;99.90;;;;;;4995128;28;19996;-72
2024/01/24 09:06:04;;;;;;;;;;;10.00;99.90;;;;;;4993543;28;19937;-72
2024/01/24 09:08:30;;;;;;;;;;;10.00;99.90;;;;;;4994744;28;19957;-72
2024/01/24 09:10:57;;;;;;;;;;;10.00;99.90;;;;;;4994266;28;19930;-72
2024/01/24 09:13:23;;;;;;;;;;;10.10;99.90;;;;;;4997296;28;19961;-73
2024/01/24 09:15:51;;;;;;;;;;;10.10;99.90;;;;;;5012950;28;20270;-72
2024/01/24 09:18:18;;;;;;;;;;;10.10;99.90;;;;;;5027034;28;19921;-72
2024/01/24 09:20:45;;;;;;;;;;;10.20;99.90;;;;;;5021332;28;20154;-72
2024/01/24 09:23:12;;;;;;;;;;;10.20;99.90;;;;;;5021419;28;20028;-73
2024/01/24 09:25:39;;;;;;;;;;;10.20;99.90;;;;;;5024126;28;19953;-73
2024/01/24 09:28:08;;;;;;;;;;;10.20;99.90;;;;;;5019765;28;20270;-73
2024/01/24 09:30:35;;;;;;;;;;;10.20;99.90;;;;;;5022620;28;19934;-72
2024/01/24 09:33:03;;;;;;;;;;;10.20;99.90;;;;;;5022060;28;19988;-72
2024/01/24 09:35:30;;;;;;;;;;;10.30;99.90;;;;;;5024577;28;19940;-72
2024/01/24 09:37:57;;;;;;;;;;;10.40;99.90;;;;;;5025940;28;19992;-72
2024/01/24 09:40:24;;;;;;;;;;;10.40;99.90;;;;;;5022799;28;19953;-72
2024/01/24 09:42:51;;;;;;;;;;;10.50;99.90;;;;;;5028131;28;19921;-71
2024/01/24 09:45:18;;;;;;;;;;;10.50;99.90;;;;;;5020213;28;19952;-73
2024/01/24 09:47:46;;;;;;;;;;;10.50;99.90;;;;;;5016768;28;20326;-71
2024/01/24 09:50:14;;;;;;;;;;;10.50;99.90;;;;;;5020887;28;19963;-72
2024/01/24 09:52:42;;;;;;;;;;;10.50;99.90;;;;;;5023065;28;19984;-72
2024/01/24 09:55:11;;;;;;;;;;;10.60;99.90;;;;;;5018981;28;20331;-72
2024/01/24 09:57:38;;;;;;;;;;;10.60;99.90;;;;;;5025818;28;20128;-72
2024/01/24 10:00:05;;;;;;;;;;;10.70;99.90;;;;;;5021280;28;19977;-72
2024/01/24 10:02:32;;;;;;;;;;;10.80;99.90;;;;;;5025669;28;19929;-72
2024/01/24 10:04:59;;;;;;;;;;;11.00;99.90;;;;;;5024516;28;20233;-72
2024/01/24 10:07:27;;;;;;;;;;;11.20;99.90;;;;;;4999541;28;19921;-72
2024/01/24 10:09:57;;;;;;;;;;;11.30;99.90;;;;;;4996071;28;20147;-72
2024/01/24 10:12:24;;;;;;;;;;;11.40;99.90;;;;;;4997386;28;20279;-71
2024/01/24 10:14:51;;;;;;;;;;;11.40;99.90;;;;;;4996581;28;19960;-72
2024/01/24 10:17:18;;;;;;;;;;;11.30;99.90;;;;;;5007401;28;20294;-72
2024/01/24 10:19:45;;;;;;;;;;;11.30;99.90;;;;;;5025009;28;19925;-72
2024/01/24 10:22:12;;;;;;;;;;;11.20;99.90;;;;;;5020884;28;19921;-72
2024/01/24 10:24:41;;;;;;;;;;;11.20;99.90;;;;;;5026158;28;19928;-72
2024/01/24 10:27:08;;;;;;;;;;;11.30;99.90;;;;;;5027673;28;19921;-73
2024/01/24 10:29:35;;;;;;;;;;;11.30;99.90;;;;;;5029060;28;19956;-72
2024/01/24 10:32:02;;;;;;;;;;;11.30;99.90;;;;;;5021547;28;20115;-72
2024/01/24 10:34:29;;;;;;;;;;;11.30;99.90;;;;;;5028956;28;19967;-72
2024/01/24 10:36:56;;;;;;;;;;;11.40;99.90;;;;;;5027096;28;20234;-71
2024/01/24 10:39:24;;;;;;;;;;;11.40;99.90;;;;;;5027102;28;19957;-72
2024/01/24 10:41:55;;;;;;;;;;;11.40;99.90;;;;;;5027802;28;20279;-72
2024/01/24 10:44:25;;;;;;;;;;;11.40;99.90;;;;;;5007475;28;19953;-72
2024/01/24 10:46:52;;;;;;;;;;;11.50;99.90;;;;;;4998759;28;20175;-72
2024/01/24 10:49:19;;;;;;;;;;;11.50;99.90;;;;;;4993533;28;20005;-72
2024/01/24 10:51:47;;;;;;;;;;;11.50;99.90;;;;;;4995461;28;20140;-71
2024/01/24 10:54:15;;;;;;;;;;;11.50;99.90;;;;;;4998908;28;20168;-72
2024/01/24 10:56:46;;;;;;;;;;;11.50;99.90;;;;;;4995590;28;20100;-73
2024/01/24 10:59:14;;;;;;;;;;;11.50;99.90;;;;;;4997052;28;19923;-72
2024/01/24 11:01:41;;;;;;;;;;;11.40;99.90;;;;;;5011268;28;19973;-71
2024/01/24 11:04:08;;;;;;;;;;;11.40;99.90;;;;;;5013377;28;19922;-72
2024/01/24 11:06:36;;;;;;;;;;;11.40;99.90;;;;;;5024872;28;19983;-71
2024/01/24 11:09:08;;;;;;;;;;;11.40;99.90;;;;;;5020634;28;19955;-72
2024/01/24 11:11:35;;;;;;;;;;;11.30;99.90;;;;;;5027819;28;20258;-72
2024/01/24 11:14:02;;;;;;;;;;;11.30;99.90;;;;;;5038312;28;20211;-72
2024/01/24 11:16:31;;;;;;;;;;;11.30;99.90;;;;;;5036171;28;20282;-72
2024/01/24 11:19:18;;;;;;;;;;;11.20;99.90;;;;;;5019812;28;20282;-72
2024/01/24 11:21:45;;;;;;;;;;;11.30;99.90;;;;;;4994006;28;19949;-72
2024/01/24 11:24:12;;;;;;;;;;;11.20;99.90;;;;;;4997960;28;19958;-72
2024/01/24 11:26:48;;;;;;;;;;;11.20;99.90;;;;;;4995632;28;19960;-72
2024/01/24 11:29:15;;;;;;;;;;;11.20;99.90;;;;;;4997253;28;19926;-72
2024/01/24 11:31:43;;;;;;;;;;;11.20;99.90;;;;;;4997427;28;19933;-71
2024/01/24 11:34:11;;;;;;;;;;;11.10;99.90;;;;;;4995398;28;19985;-72
2024/01/24 11:36:40;;;;;;;;;;;11.10;99.90;;;;;;4997573;28;20955;-72
2024/01/24 11:39:22;;;;;;;;;;;11.10;99.90;;;;;;4995113;28;20000;-72
2024/01/24 11:41:49;;;;;;;;;;;11.10;99.90;;;;;;4995144;28;19950;-72
2024/01/24 11:44:19;;;;;;;;;;;11.20;99.90;;;;;;4997231;28;19928;-72
2024/01/24 11:46:47;;;;;;;;;;;11.30;99.90;;;;;;4998450;28;19930;-71
2024/01/24 11:49:17;;;;;;;;;;;11.40;99.90;;;;;;5025907;28;19952;-71
2024/01/24 11:51:44;;;;;;;;;;;11.60;99.90;;;;;;5012603;28;19929;-72
2024/01/24 11:54:10;;;;;;;;;;;11.80;99.90;;;;;;5019618;28;19936;-72
2024/01/24 11:56:37;;;;;;;;;;;11.80;99.90;;;;;;5028399;28;19980;-71
2024/01/24 11:59:04;;;;;;;;;;;11.90;99.90;;;;;;5034115;28;19928;-71
2024/01/24 12:01:30;;;;;;;;;;;11.90;99.90;;;;;;5033231;28;19921;-72
2024/01/24 12:03:58;;;;;;;;;;;11.80;99.90;;;;;;5017942;28;19992;-72
2024/01/24 12:06:25;;;;;;;;;;;11.90;99.90;;;;;;5031253;28;19961;-71
2024/01/24 12:08:54;;;;;;;;;;;11.90;99.90;;;;;;5032416;28;19928;-72
2024/01/24 12:11:21;;;;;;;;;;;12.00;99.90;;;;;;5020462;28;20111;-71
2024/01/24 12:13:47;;;;;;;;;;;12.10;99.90;;;;;;5020442;28;19921;-71
2024/01/24 12:16:14;;;;;;;;;;;12.00;99.90;;;;;;5028510;28;20184;-71
2024/01/24 12:18:41;;;;;;;;;;;11.90;99.90;;;;;;5042568;28;19961;-72
2024/01/24 12:21:09;;;;;;;;;;;11.90;99.90;;;;;;5039378;28;19921;-72
2024/01/24 12:23:36;;;;;;;;;;;11.80;99.90;;;;;;5024605;28;19960;-72
2024/01/24 12:26:03;;;;;;;;;;;11.80;99.90;;;;;;5040297;28;19956;-72
2024/01/24 12:28:30;;;;;;;;;;;11.80;99.90;;;;;;5038363;28;19932;-72
2024/01/24 12:30:57;;;;;;;;;;;11.70;99.90;;;;;;5029085;28;19963;-71
2024/01/24 12:33:24;;;;;;;;;;;11.70;99.90;;;;;;5024675;28;19971;-71
2024/01/24 12:35:50;;;;;;;;;;;11.60;99.90;;;;;;5034418;28;20238;-72
2024/01/24 12:38:18;;;;;;;;;;;11.60;99.90;;;;;;5038445;28;19921;-71
2024/01/24 12:40:48;;;;;;;;;;;11.70;99.90;;;;;;5022781;28;19984;-71
2024/01/24 12:43:15;;;;;;;;;;;11.80;99.90;;;;;;5039228;28;19952;-72
2024/01/24 12:45:41;;;;;;;;;;;11.80;99.90;;;;;;5027055;28;20231;-71
2024/01/24 12:48:10;;;;;;;;;;;11.90;99.90;;;;;;5024900;28;19979;-71
2024/01/24 12:50:36;;;;;;;;;;;12.00;99.90;;;;;;5010823;28;19953;-71
2024/01/24 12:53:03;;;;;;;;;;;12.10;99.90;;;;;;5015076;28;19922;-72
2024/01/24 12:55:31;;;;;;;;;;;12.20;99.90;;;;;;5027369;28;19953;-71
2024/01/24 12:57:58;;;;;;;;;;;12.20;99.90;;;;;;5035611;28;19929;-72
2024/01/24 13:00:24;;;;;;;;;;;12.10;99.90;;;;;;5026742;28;19953;-72
2024/01/24 13:02:52;;;;;;;;;;;12.00;99.90;;;;;;5032200;28;19980;-71
2024/01/24 13:05:19;;;;;;;;;;;11.80;99.90;;;;;;5012350;28;19933;-72
2024/01/24 13:07:46;;;;;;;;;;;11.80;99.90;;;;;;5020885;28;19984;-71
2024/01/24 13:10:12;;;;;;;;;;;11.80;99.90;;;;;;5022407;28;19921;-71
2024/01/24 13:12:41;;;;;;;;;;;11.70;99.90;;;;;;5019706;28;20211;-74
2024/01/24 13:15:08;;;;;;;;;;;11.60;99.90;;;;;;5012718;28;20266;-72
2024/01/24 13:17:34;;;;;;;;;;;11.60;99.90;;;;;;5013597;28;19953;-71
2024/01/24 13:20:04;;;;;;;;;;;11.50;99.90;;;;;;5013549;28;19928;-71
2024/01/24 13:22:31;;;;;;;;;;;11.50;99.90;;;;;;5009459;28;20245;-71
2024/01/24 13:24:58;;;;;;;;;;;11.40;99.90;;;;;;5019259;28;19949;-74
2024/01/24 13:27:24;;;;;;;;;;;11.40;99.90;;;;;;5023322;28;19921;-72
2024/01/24 13:29:52;;;;;;;;;;;11.30;99.90;;;;;;5027050;28;20114;-71
2024/01/24 13:32:19;;;;;;;;;;;11.30;99.90;;;;;;5027808;28;19964;-71
2024/01/24 13:34:46;;;;;;;;;;;11.20;99.90;;;;;;5026246;28;19957;-71
2024/01/24 13:37:16;;;;;;;;;;;11.20;99.90;;;;;;5027779;28;19989;-72
2024/01/24 13:39:43;;;;;;;;;;;11.20;99.90;;;;;;5039328;28;19964;-71
2024/01/24 13:42:09;;;;;;;;;;;11.20;99.90;;;;;;5035384;28;19922;-71
2024/01/24 13:44:36;;;;;;;;;;;11.20;99.90;;;;;;5029467;28;19921;-69
2024/01/24 13:47:04;;;;;;;;;;;11.30;99.90;;;;;;5029397;28;19985;-70
2024/01/24 13:49:31;;;;;;;;;;;11.40;99.90;;;;;;5029810;28;19921;-72
2024/01/24 13:51:57;;;;;;;;;;;11.60;99.90;;;;;;5029355;28;19928;-71
2024/01/24 13:54:24;;;;;;;;;;;11.70;99.90;;;;;;5029350;28;19921;-71
2024/01/24 13:56:50;;;;;;;;;;;11.70;99.90;;;;;;5029154;28;19980;-72
2024/01/24 13:59:17;;;;;;;;;;;11.80;99.90;;;;;;5029810;28;19921;-71
2024/01/24 14:01:44;;;;;;;;;;;11.80;99.90;;;;;;5045822;28;19921;-71
2024/01/24 14:04:12;;;;;;;;;;;11.90;99.90;;;;;;5045749;28;20115;-72
2024/01/24 14:06:39;;;;;;;;;;;11.90;99.90;;;;;;5028980;28;20258;-71
2024/01/24 14:09:05;;;;;;;;;;;11.90;99.90;;;;;;5028821;28;19921;-71
2024/01/24 14:11:32;;;;;;;;;;;12.00;99.90;;;;;;5030784;28;19922;-71
2024/01/24 14:13:59;;;;;;;;;;;11.90;99.90;;;;;;5045477;28;19984;-71
2024/01/24 14:16:26;;;;;;;;;;;11.80;99.90;;;;;;5044251;28;19921;-72
2024/01/24 14:18:52;;;;;;;;;;;11.80;99.90;;;;;;5044822;28;20211;-71
2024/01/24 14:21:24;;;;;;;;;;;11.80;99.90;;;;;;5037777;28;19989;-72
2024/01/24 14:23:50;;;;;;;;;;;11.70;99.90;;;;;;5038525;28;19983;-71